Chikyu — JRAJ — position and weather

sailwx.info

Track history (hours):
 
Tides and Currents Weather Stations Pressure Air Temp Water Temp Dewpoint Dewpoint Depression Visibility Wind Speed Wind Dir Waves Ship Positions

Oceanographic research ship Chikyu (Japan)

Last reported at 2016-Sep-06 22:05 UTC. Time now 2017-Mar-23 20:20 UTC.
Position N 35°02' E 138°31'.
Warning: this ship's position is months out of date.

Length 210 m; beam 38 m.

Type: Other ship. MMSI: 432522000.

Date/timePositionNaut miles runAvg speedWind from/ knotsBaromVisibWave heightAir tempDewpointWater temp
2016-Sep-06 22:05N 35°02' E 138°31'  
2016-Aug-31 00:13N 35°02' E 138°31'59 1.2
2016-Aug-28 23:23N 34°38' E 139°36'7 8.6
2016-Aug-28 22:32N 34°40' E 139°45'8 8.1
2016-Aug-28 21:34N 34°42' E 139°54'9 9.3
2016-Aug-28 20:33N 34°46' E 140°04'8 8.5
2016-Aug-28 19:33N 34°50' E 140°14'8 8.0
2016-Aug-28 18:33N 34°55' E 140°21'8 8.5
2016-Aug-28 17:33N 35°01' E 140°28'9 8.8
2016-Aug-28 16:33N 35°08' E 140°35'8 8.1
2016-Aug-28 15:33N 35°14' E 140°42'8 8.3
2016-Aug-28 14:33N 35°20' E 140°49'9 8.5
2016-Aug-28 13:33N 35°26' E 140°56'12 8.8
2016-Aug-28 12:08N 35°35' E 141°07'72 9.5
2016-Aug-28 04:30N 36°28' E 142°07'  
Track history (hours):
 
Tides and Currents Weather Stations Pressure Air Temp Water Temp Dewpoint Dewpoint Depression Visibility Wind Speed Wind Dir Waves Ship Positions

Oceanographic research ship Chikyu (Japan)

Last reported at 2016-Sep-06 22:05 UTC. Time now 2017-Mar-23 20:20 UTC.
Position N 35°02' E 138°31'.
Warning: this ship's position is months out of date.

Length 210 m; beam 38 m.

Type: Other ship. MMSI: 432522000.

Date/timePositionNaut miles runAvg speedWind from/ knotsBaromVisibWave heightAir tempDewpointWater temp
2016-Sep-06 22:05N 35°02' E 138°31'  
2016-Aug-31 00:13N 35°02' E 138°31'59 1.2
2016-Aug-28 23:23N 34°38' E 139°36'7 8.6
2016-Aug-28 22:32N 34°40' E 139°45'8 8.1
2016-Aug-28 21:34N 34°42' E 139°54'9 9.3
2016-Aug-28 20:33N 34°46' E 140°04'8 8.5
2016-Aug-28 19:33N 34°50' E 140°14'8 8.0
2016-Aug-28 18:33N 34°55' E 140°21'8 8.5
2016-Aug-28 17:33N 35°01' E 140°28'9 8.8
2016-Aug-28 16:33N 35°08' E 140°35'8 8.1
2016-Aug-28 15:33N 35°14' E 140°42'8 8.3
2016-Aug-28 14:33N 35°20' E 140°49'9 8.5
2016-Aug-28 13:33N 35°26' E 140°56'12 8.8
2016-Aug-28 12:08N 35°35' E 141°07'72 9.5
2016-Aug-28 04:30N 36°28' E 142°07'  

Dump ship's entire track history